sensor_id;sensor_type;location;lat;lon;timestamp;noise_LAeq;noise_LA_min;noise_LA_max;noise_LA01;noise_LA95
60503;Laerm;51448;51.660;5.824;2022-08-04T00:01:50;41.33;29.96;54.30;;
60503;Laerm;51448;51.660;5.824;2022-08-04T00:04:44;43.20;29.87;56.29;;
60503;Laerm;51448;51.660;5.824;2022-08-04T00:10:17;40.28;29.62;53.97;;
60503;Laerm;51448;51.660;5.824;2022-08-04T00:12:50;40.86;29.75;53.88;;
60503;Laerm;51448;51.660;5.824;2022-08-04T00:15:19;40.63;29.21;53.79;;
60503;Laerm;51448;51.660;5.824;2022-08-04T00:17:59;40.92;29.88;54.21;;
60503;Laerm;51448;51.660;5.824;2022-08-04T00:20:33;40.91;29.80;53.97;;
60503;Laerm;51448;51.660;5.824;2022-08-04T00:23:02;41.02;29.52;54.41;;
60503;Laerm;51448;51.660;5.824;2022-08-04T00:25:30;41.15;29.91;54.29;;
60503;Laerm;51448;51.660;5.824;2022-08-04T00:27:59;42.34;29.73;57.05;;
60503;Laerm;51448;51.660;5.824;2022-08-04T00:30:28;41.05;30.12;54.04;;
60503;Laerm;51448;51.660;5.824;2022-08-04T00:32:56;43.51;29.84;54.84;;
60503;Laerm;51448;51.660;5.824;2022-08-04T00:35:27;41.40;29.81;54.35;;
60503;Laerm;51448;51.660;5.824;2022-08-04T00:37:56;44.25;30.51;56.99;;
60503;Laerm;51448;51.660;5.824;2022-08-04T00:43:22;40.31;30.21;53.07;;
60503;Laerm;51448;51.660;5.824;2022-08-04T00:46:26;40.32;30.06;54.33;;
60503;Laerm;51448;51.660;5.824;2022-08-04T00:51:59;41.21;31.17;54.80;;
60503;Laerm;51448;51.660;5.824;2022-08-04T00:58:10;40.90;30.35;54.49;;
60503;Laerm;51448;51.660;5.824;2022-08-04T01:00:58;40.74;30.57;54.70;;
60503;Laerm;51448;51.660;5.824;2022-08-04T01:03:56;41.08;30.13;54.32;;
60503;Laerm;51448;51.660;5.824;2022-08-04T01:06:41;41.94;29.92;55.01;;
60503;Laerm;51448;51.660;5.824;2022-08-04T01:09:49;41.07;30.27;54.67;;
60503;Laerm;51448;51.660;5.824;2022-08-04T01:15:44;41.40;29.80;55.10;;
60503;Laerm;51448;51.660;5.824;2022-08-04T01:19:07;42.20;29.66;55.83;;
60503;Laerm;51448;51.660;5.824;2022-08-04T01:27:50;41.04;30.41;57.01;;
60503;Laerm;51448;51.660;5.824;2022-08-04T01:30:29;41.44;30.22;54.88;;
60503;Laerm;51448;51.660;5.824;2022-08-04T01:33:08;41.55;29.95;54.54;;
60503;Laerm;51448;51.660;5.824;2022-08-04T01:35:48;42.11;29.84;54.75;;
60503;Laerm;51448;51.660;5.824;2022-08-04T01:38:36;41.23;29.52;54.78;;
60503;Laerm;51448;51.660;5.824;2022-08-04T01:41:09;40.95;29.66;54.29;;
60503;Laerm;51448;51.660;5.824;2022-08-04T01:43:42;46.35;29.90;64.29;;
60503;Laerm;51448;51.660;5.824;2022-08-04T01:46:15;43.50;30.63;55.45;;
60503;Laerm;51448;51.660;5.824;2022-08-04T01:48:46;41.18;30.54;54.45;;
60503;Laerm;51448;51.660;5.824;2022-08-04T01:51:21;41.93;30.04;54.81;;
60503;Laerm;51448;51.660;5.824;2022-08-04T01:53:50;41.70;30.14;54.61;;
60503;Laerm;51448;51.660;5.824;2022-08-04T01:56:18;43.70;30.68;56.16;;
60503;Laerm;51448;51.660;5.824;2022-08-04T01:58:47;41.05;30.94;53.90;;
60503;Laerm;51448;51.660;5.824;2022-08-04T02:01:15;41.40;30.90;54.61;;
60503;Laerm;51448;51.660;5.824;2022-08-04T02:03:44;43.15;30.93;54.67;;
60503;Laerm;51448;51.660;5.824;2022-08-04T02:07:05;40.33;30.79;54.08;;
60503;Laerm;51448;51.660;5.824;2022-08-04T02:15:36;41.21;29.76;55.12;;
60503;Laerm;51448;51.660;5.824;2022-08-04T02:18:31;41.43;29.59;55.39;;
60503;Laerm;51448;51.660;5.824;2022-08-04T02:21:01;42.55;29.48;55.35;;
60503;Laerm;51448;51.660;5.824;2022-08-04T02:23:39;42.20;29.52;55.13;;
60503;Laerm;51448;51.660;5.824;2022-08-04T02:26:19;42.16;30.20;54.94;;
60503;Laerm;51448;51.660;5.824;2022-08-04T02:29:18;41.48;29.49;54.57;;
60503;Laerm;51448;51.660;5.824;2022-08-04T02:32:05;41.31;29.73;54.63;;
60503;Laerm;51448;51.660;5.824;2022-08-04T02:34:56;42.53;30.13;54.50;;
60503;Laerm;51448;51.660;5.824;2022-08-04T02:37:30;41.78;30.28;55.08;;
60503;Laerm;51448;51.660;5.824;2022-08-04T02:40:01;41.75;30.16;54.77;;
60503;Laerm;51448;51.660;5.824;2022-08-04T02:42:32;42.96;29.82;55.60;;
60503;Laerm;51448;51.660;5.824;2022-08-04T02:45:00;41.87;30.20;55.06;;
60503;Laerm;51448;51.660;5.824;2022-08-04T02:47:29;41.65;29.85;54.43;;
60503;Laerm;51448;51.660;5.824;2022-08-04T02:50:19;41.22;29.79;54.58;;
60503;Laerm;51448;51.660;5.824;2022-08-04T02:53:02;41.44;29.67;54.59;;
60503;Laerm;51448;51.660;5.824;2022-08-04T02:55:37;42.28;29.83;55.22;;
60503;Laerm;51448;51.660;5.824;2022-08-04T02:58:19;41.34;30.15;54.54;;
60503;Laerm;51448;51.660;5.824;2022-08-04T03:00:49;42.77;30.09;55.16;;
60503;Laerm;51448;51.660;5.824;2022-08-04T03:03:39;41.94;30.40;55.49;;
60503;Laerm;51448;51.660;5.824;2022-08-04T03:15:04;42.14;29.85;55.51;;
60503;Laerm;51448;51.660;5.824;2022-08-04T03:21:04;40.82;30.07;55.89;;
60503;Laerm;51448;51.660;5.824;2022-08-04T03:29:59;42.20;30.97;55.31;;
60503;Laerm;51448;51.660;5.824;2022-08-04T03:33:08;49.87;31.44;70.75;;
60503;Laerm;51448;51.660;5.824;2022-08-04T03:39:09;42.59;31.03;55.14;;
60503;Laerm;51448;51.660;5.824;2022-08-04T03:48:38;45.67;31.53;56.67;;
60503;Laerm;51448;51.660;5.824;2022-08-04T03:51:47;41.22;32.05;59.55;;
60503;Laerm;51448;51.660;5.824;2022-08-04T03:58:23;46.67;32.27;61.46;;
60503;Laerm;51448;51.660;5.824;2022-08-04T04:15:46;46.07;34.79;60.07;;
60503;Laerm;51448;51.660;5.824;2022-08-04T04:24:02;48.27;33.63;66.40;;
60503;Laerm;51448;51.660;5.824;2022-08-04T04:26:54;46.19;33.74;59.00;;
60503;Laerm;51448;51.660;5.824;2022-08-04T04:29:59;43.63;33.32;56.11;;
60503;Laerm;51448;51.660;5.824;2022-08-04T04:38:37;46.22;33.60;67.56;;
60503;Laerm;51448;51.660;5.824;2022-08-04T04:41:41;49.47;33.59;63.59;;
60503;Laerm;51448;51.660;5.824;2022-08-04T04:47:17;48.68;34.10;61.77;;
60503;Laerm;51448;51.660;5.824;2022-08-04T04:53:57;51.25;35.08;63.99;;
60503;Laerm;51448;51.660;5.824;2022-08-04T04:56:49;53.64;34.02;67.92;;
60503;Laerm;51448;51.660;5.824;2022-08-04T04:59:23;48.02;34.23;57.62;;
60503;Laerm;51448;51.660;5.824;2022-08-04T05:02:25;51.28;33.43;65.89;;
60503;Laerm;51448;51.660;5.824;2022-08-04T05:05:25;48.44;36.79;58.47;;
60503;Laerm;51448;51.660;5.824;2022-08-04T05:08:25;48.89;35.05;59.95;;
60503;Laerm;51448;51.660;5.824;2022-08-04T05:14:06;48.02;34.91;59.13;;
60503;Laerm;51448;51.660;5.824;2022-08-04T05:17:17;47.02;35.30;65.21;;
60503;Laerm;51448;51.660;5.824;2022-08-04T05:20:00;51.29;33.95;66.38;;
60503;Laerm;51448;51.660;5.824;2022-08-04T05:22:41;46.81;33.83;58.73;;
60503;Laerm;51448;51.660;5.824;2022-08-04T05:25:24;44.37;34.51;55.38;;
60503;Laerm;51448;51.660;5.824;2022-08-04T05:28:17;43.95;33.71;57.67;;
60503;Laerm;51448;51.660;5.824;2022-08-04T05:30:54;51.19;34.67;69.75;;
60503;Laerm;51448;51.660;5.824;2022-08-04T05:34:08;47.82;34.69;68.55;;
60503;Laerm;51448;51.660;5.824;2022-08-04T05:36:49;51.06;35.17;62.35;;
60503;Laerm;51448;51.660;5.824;2022-08-04T05:39:25;48.28;35.25;59.54;;
60503;Laerm;51448;51.660;5.824;2022-08-04T05:42:01;46.79;35.67;60.64;;
60503;Laerm;51448;51.660;5.824;2022-08-04T05:44:34;46.27;35.74;56.61;;
60503;Laerm;51448;51.660;5.824;2022-08-04T05:47:04;46.77;35.95;56.99;;
60503;Laerm;51448;51.660;5.824;2022-08-04T05:49:34;47.97;35.50;66.80;;
60503;Laerm;51448;51.660;5.824;2022-08-04T05:52:05;47.38;35.02;61.51;;
60503;Laerm;51448;51.660;5.824;2022-08-04T05:54:34;48.63;35.02;60.63;;
60503;Laerm;51448;51.660;5.824;2022-08-04T05:57:05;50.08;33.89;61.35;;
60503;Laerm;51448;51.660;5.824;2022-08-04T05:59:37;45.74;34.12;61.49;;
60503;Laerm;51448;51.660;5.824;2022-08-04T06:02:08;46.25;33.07;61.66;;
60503;Laerm;51448;51.660;5.824;2022-08-04T06:04:38;49.37;33.60;62.69;;
60503;Laerm;51448;51.660;5.824;2022-08-04T06:07:07;47.28;34.29;62.90;;
60503;Laerm;51448;51.660;5.824;2022-08-04T06:09:37;52.51;34.64;72.56;;
60503;Laerm;51448;51.660;5.824;2022-08-04T06:12:14;46.83;33.21;59.83;;
60503;Laerm;51448;51.660;5.824;2022-08-04T06:14:48;50.49;34.36;69.62;;
60503;Laerm;51448;51.660;5.824;2022-08-04T06:17:35;45.90;33.37;58.22;;
60503;Laerm;51448;51.660;5.824;2022-08-04T06:20:30;44.94;33.05;56.89;;
60503;Laerm;51448;51.660;5.824;2022-08-04T06:23:08;43.12;33.97;64.45;;
60503;Laerm;51448;51.660;5.824;2022-08-04T06:25:43;45.04;33.70;56.95;;
60503;Laerm;51448;51.660;5.824;2022-08-04T06:28:14;44.66;34.44;59.26;;
60503;Laerm;51448;51.660;5.824;2022-08-04T06:30:43;44.29;34.15;59.10;;
60503;Laerm;51448;51.660;5.824;2022-08-04T06:33:17;56.57;33.70;71.20;;
60503;Laerm;51448;51.660;5.824;2022-08-04T06:35:54;49.60;34.50;69.72;;
60503;Laerm;51448;51.660;5.824;2022-08-04T06:38:26;40.76;33.40;54.50;;
60503;Laerm;51448;51.660;5.824;2022-08-04T06:40:55;44.87;34.10;62.75;;
60503;Laerm;51448;51.660;5.824;2022-08-04T06:43:26;42.67;33.31;61.67;;
60503;Laerm;51448;51.660;5.824;2022-08-04T06:46:00;42.98;33.28;59.39;;
60503;Laerm;51448;51.660;5.824;2022-08-04T06:48:31;46.81;34.36;63.48;;
60503;Laerm;51448;51.660;5.824;2022-08-04T06:51:01;47.88;34.01;70.70;;
60503;Laerm;51448;51.660;5.824;2022-08-04T06:53:50;47.23;33.26;72.67;;
60503;Laerm;51448;51.660;5.824;2022-08-04T06:56:19;44.75;31.94;59.88;;
60503;Laerm;51448;51.660;5.824;2022-08-04T06:58:48;42.81;32.41;54.73;;
60503;Laerm;51448;51.660;5.824;2022-08-04T07:01:19;43.45;32.55;58.35;;
60503;Laerm;51448;51.660;5.824;2022-08-04T07:03:48;41.82;32.36;58.78;;
60503;Laerm;51448;51.660;5.824;2022-08-04T07:06:17;47.95;32.02;67.22;;
60503;Laerm;51448;51.660;5.824;2022-08-04T07:08:49;45.73;31.94;63.43;;
60503;Laerm;51448;51.660;5.824;2022-08-04T07:11:18;42.63;31.13;56.20;;
60503;Laerm;51448;51.660;5.824;2022-08-04T07:13:48;41.52;32.43;52.15;;
60503;Laerm;51448;51.660;5.824;2022-08-04T07:16:19;46.12;30.91;55.61;;
60503;Laerm;51448;51.660;5.824;2022-08-04T07:18:57;45.59;32.39;61.61;;
60503;Laerm;51448;51.660;5.824;2022-08-04T07:21:37;50.56;32.14;69.75;;
60503;Laerm;51448;51.660;5.824;2022-08-04T07:24:06;44.47;31.88;56.16;;
60503;Laerm;51448;51.660;5.824;2022-08-04T07:26:34;42.46;31.48;60.89;;
60503;Laerm;51448;51.660;5.824;2022-08-04T07:29:02;48.43;32.57;64.24;;
60503;Laerm;51448;51.660;5.824;2022-08-04T07:31:30;44.64;32.06;62.47;;
60503;Laerm;51448;51.660;5.824;2022-08-04T07:34:03;45.32;32.10;60.47;;
60503;Laerm;51448;51.660;5.824;2022-08-04T07:36:51;46.54;31.13;61.27;;
60503;Laerm;51448;51.660;5.824;2022-08-04T07:39:25;42.14;30.96;64.19;;
60503;Laerm;51448;51.660;5.824;2022-08-04T07:41:59;47.66;30.54;67.00;;
60503;Laerm;51448;51.660;5.824;2022-08-04T07:44:33;42.76;31.26;54.10;;
60503;Laerm;51448;51.660;5.824;2022-08-04T07:47:05;45.67;30.97;70.09;;
60503;Laerm;51448;51.660;5.824;2022-08-04T07:49:34;60.09;31.25;69.99;;
60503;Laerm;51448;51.660;5.824;2022-08-04T07:52:24;60.89;34.09;72.98;;
60503;Laerm;51448;51.660;5.824;2022-08-04T07:54:53;44.51;33.15;57.75;;
60503;Laerm;51448;51.660;5.824;2022-08-04T07:57:21;62.71;35.80;83.04;;
60503;Laerm;51448;51.660;5.824;2022-08-04T08:00:10;55.50;32.95;69.69;;
60503;Laerm;51448;51.660;5.824;2022-08-04T08:02:42;48.38;33.94;60.73;;
60503;Laerm;51448;51.660;5.824;2022-08-04T08:05:14;45.46;31.75;57.12;;
60503;Laerm;51448;51.660;5.824;2022-08-04T08:07:48;43.02;32.59;62.40;;
60503;Laerm;51448;51.660;5.824;2022-08-04T08:10:22;45.20;31.49;59.88;;
60503;Laerm;51448;51.660;5.824;2022-08-04T08:12:53;42.46;31.33;56.01;;
60503;Laerm;51448;51.660;5.824;2022-08-04T08:15:21;56.32;32.86;80.23;;
60503;Laerm;51448;51.660;5.824;2022-08-04T08:17:49;42.80;32.77;55.30;;
60503;Laerm;51448;51.660;5.824;2022-08-04T08:20:29;39.68;30.84;57.22;;
60503;Laerm;51448;51.660;5.824;2022-08-04T08:23:00;41.48;31.01;60.49;;
60503;Laerm;51448;51.660;5.824;2022-08-04T08:25:32;46.10;31.58;58.31;;
60503;Laerm;51448;51.660;5.824;2022-08-04T08:28:05;40.97;30.44;65.97;;
60503;Laerm;51448;51.660;5.824;2022-08-04T08:30:33;43.75;30.71;54.60;;
60503;Laerm;51448;51.660;5.824;2022-08-04T08:33:07;42.80;32.10;53.08;;
60503;Laerm;51448;51.660;5.824;2022-08-04T08:35:51;41.59;31.22;60.84;;
60503;Laerm;51448;51.660;5.824;2022-08-04T08:51:39;43.24;32.63;68.71;;
60503;Laerm;51448;51.660;5.824;2022-08-04T08:54:19;40.99;33.70;54.26;;
60503;Laerm;51448;51.660;5.824;2022-08-04T09:00:50;48.48;32.17;62.76;;
60503;Laerm;51448;51.660;5.824;2022-08-04T09:10:31;49.84;31.74;66.53;;
60503;Laerm;51448;51.660;5.824;2022-08-04T09:13:21;45.14;31.67;67.85;;
60503;Laerm;51448;51.660;5.824;2022-08-04T09:22:19;43.91;33.11;56.21;;
60503;Laerm;51448;51.660;5.824;2022-08-04T09:25:02;46.57;32.98;62.39;;
60503;Laerm;51448;51.660;5.824;2022-08-04T09:30:12;40.42;32.82;58.78;;
60503;Laerm;51448;51.660;5.824;2022-08-04T09:33:17;49.82;34.64;71.84;;
60503;Laerm;51448;51.660;5.824;2022-08-04T09:36:40;47.82;34.11;63.32;;
60503;Laerm;51448;51.660;5.824;2022-08-04T09:39:28;47.32;33.20;67.27;;
60503;Laerm;51448;51.660;5.824;2022-08-04T09:42:19;44.11;32.73;64.47;;
60503;Laerm;51448;51.660;5.824;2022-08-04T09:45:26;44.58;33.22;60.31;;
60503;Laerm;51448;51.660;5.824;2022-08-04T09:48:18;46.97;34.40;73.04;;
60503;Laerm;51448;51.660;5.824;2022-08-04T09:50:57;46.43;34.15;66.03;;
60503;Laerm;51448;51.660;5.824;2022-08-04T09:56:40;44.24;33.52;57.76;;
60503;Laerm;51448;51.660;5.824;2022-08-04T09:59:26;42.59;33.10;57.53;;
60503;Laerm;51448;51.660;5.824;2022-08-04T10:02:02;41.89;33.88;63.69;;
60503;Laerm;51448;51.660;5.824;2022-08-04T10:04:38;43.51;35.77;59.13;;
60503;Laerm;51448;51.660;5.824;2022-08-04T10:07:23;44.19;36.24;66.96;;
60503;Laerm;51448;51.660;5.824;2022-08-04T10:13:17;49.39;33.09;69.86;;
60503;Laerm;51448;51.660;5.824;2022-08-04T10:16:21;48.52;36.96;67.72;;
60503;Laerm;51448;51.660;5.824;2022-08-04T10:22:26;42.68;34.04;55.74;;
60503;Laerm;51448;51.660;5.824;2022-08-04T10:25:41;54.26;36.79;70.53;;
60503;Laerm;51448;51.660;5.824;2022-08-04T10:28:48;44.41;34.61;67.76;;
60503;Laerm;51448;51.660;5.824;2022-08-04T10:31:31;45.92;36.04;68.44;;
60503;Laerm;51448;51.660;5.824;2022-08-04T10:34:13;44.27;36.29;65.14;;
60503;Laerm;51448;51.660;5.824;2022-08-04T10:36:56;44.94;35.18;56.54;;
60503;Laerm;51448;51.660;5.824;2022-08-04T10:39:39;45.94;35.50;56.75;;
60503;Laerm;51448;51.660;5.824;2022-08-04T10:42:35;51.41;39.82;61.28;;
60503;Laerm;51448;51.660;5.824;2022-08-04T10:45:21;48.63;37.23;63.53;;
60503;Laerm;51448;51.660;5.824;2022-08-04T10:47:58;51.12;42.29;63.70;;
60503;Laerm;51448;51.660;5.824;2022-08-04T10:50:30;47.96;39.01;60.48;;
60503;Laerm;51448;51.660;5.824;2022-08-04T10:53:17;58.00;45.67;65.13;;
60503;Laerm;51448;51.660;5.824;2022-08-04T10:55:57;53.48;41.33;64.45;;
60503;Laerm;51448;51.660;5.824;2022-08-04T10:59:01;52.95;44.54;66.26;;
60503;Laerm;51448;51.660;5.824;2022-08-04T11:01:37;57.23;51.82;66.54;;
60503;Laerm;51448;51.660;5.824;2022-08-04T11:04:44;56.24;50.60;66.30;;
60503;Laerm;51448;51.660;5.824;2022-08-04T11:07:15;55.10;45.99;69.00;;
60503;Laerm;51448;51.660;5.824;2022-08-04T11:09:44;53.56;42.34;65.48;;
60503;Laerm;51448;51.660;5.824;2022-08-04T11:12:18;52.38;42.79;65.92;;
60503;Laerm;51448;51.660;5.824;2022-08-04T11:15:10;51.32;39.48;63.35;;
60503;Laerm;51448;51.660;5.824;2022-08-04T11:17:42;46.97;37.21;61.24;;
60503;Laerm;51448;51.660;5.824;2022-08-04T11:20:26;58.95;35.90;74.62;;
60503;Laerm;51448;51.660;5.824;2022-08-04T11:23:14;50.06;34.88;68.85;;
60503;Laerm;51448;51.660;5.824;2022-08-04T11:26:05;44.88;34.20;67.36;;
60503;Laerm;51448;51.660;5.824;2022-08-04T11:29:07;44.22;32.95;57.50;;
60503;Laerm;51448;51.660;5.824;2022-08-04T11:31:44;46.43;34.08;58.59;;
60503;Laerm;51448;51.660;5.824;2022-08-04T11:34:26;47.96;33.65;62.16;;
60503;Laerm;51448;51.660;5.824;2022-08-04T11:37:10;48.18;34.09;66.35;;
60503;Laerm;51448;51.660;5.824;2022-08-04T11:39:59;54.13;35.92;74.81;;
60503;Laerm;51448;51.660;5.824;2022-08-04T11:42:42;48.08;36.18;58.76;;
60503;Laerm;51448;51.660;5.824;2022-08-04T11:45:29;49.47;35.34;70.50;;
60503;Laerm;51448;51.660;5.824;2022-08-04T11:48:10;46.71;33.75;58.94;;
60503;Laerm;51448;51.660;5.824;2022-08-04T11:50:52;44.92;35.39;63.73;;
60503;Laerm;51448;51.660;5.824;2022-08-04T11:53:28;48.80;34.87;60.14;;
60503;Laerm;51448;51.660;5.824;2022-08-04T11:56:09;44.18;33.50;55.94;;
60503;Laerm;51448;51.660;5.824;2022-08-04T11:58:40;45.60;33.41;65.22;;
60503;Laerm;51448;51.660;5.824;2022-08-04T12:01:43;45.40;33.82;58.51;;
60503;Laerm;51448;51.660;5.824;2022-08-04T12:04:36;54.57;33.80;75.06;;
60503;Laerm;51448;51.660;5.824;2022-08-04T12:07:18;49.83;33.88;63.62;;
60503;Laerm;51448;51.660;5.824;2022-08-04T12:16:16;50.12;33.56;75.00;;
60503;Laerm;51448;51.660;5.824;2022-08-04T12:18:56;45.53;33.00;58.70;;
60503;Laerm;51448;51.660;5.824;2022-08-04T12:21:34;46.15;31.96;57.83;;
60503;Laerm;51448;51.660;5.824;2022-08-04T12:24:20;55.53;34.39;70.32;;
60503;Laerm;51448;51.660;5.824;2022-08-04T12:26:58;51.34;34.33;63.58;;
60503;Laerm;51448;51.660;5.824;2022-08-04T12:29:35;42.85;32.64;56.41;;
60503;Laerm;51448;51.660;5.824;2022-08-04T12:34:57;45.80;33.03;58.58;;
60503;Laerm;51448;51.660;5.824;2022-08-04T12:40:46;44.29;32.31;68.89;;
60503;Laerm;51448;51.660;5.824;2022-08-04T12:43:38;47.43;33.30;56.78;;
60503;Laerm;51448;51.660;5.824;2022-08-04T12:46:21;48.75;32.62;67.15;;
60503;Laerm;51448;51.660;5.824;2022-08-04T12:48:51;47.35;33.37;62.68;;
60503;Laerm;51448;51.660;5.824;2022-08-04T12:51:19;43.45;32.64;62.75;;
60503;Laerm;51448;51.660;5.824;2022-08-04T12:54:09;44.40;31.64;63.45;;
60503;Laerm;51448;51.660;5.824;2022-08-04T12:56:38;46.16;32.18;61.91;;
60503;Laerm;51448;51.660;5.824;2022-08-04T12:59:09;46.12;32.58;63.78;;
60503;Laerm;51448;51.660;5.824;2022-08-04T13:01:46;47.24;32.13;63.89;;
60503;Laerm;51448;51.660;5.824;2022-08-04T13:04:37;45.63;31.71;57.57;;
60503;Laerm;51448;51.660;5.824;2022-08-04T13:07:15;47.38;32.39;64.75;;
60503;Laerm;51448;51.660;5.824;2022-08-04T13:09:46;44.40;31.16;62.31;;
60503;Laerm;51448;51.660;5.824;2022-08-04T13:12:20;45.96;32.29;61.88;;
60503;Laerm;51448;51.660;5.824;2022-08-04T13:15:13;41.90;32.56;60.41;;
60503;Laerm;51448;51.660;5.824;2022-08-04T13:18:09;41.76;33.00;56.61;;
60503;Laerm;51448;51.660;5.824;2022-08-04T13:20:43;45.20;34.34;58.47;;
60503;Laerm;51448;51.660;5.824;2022-08-04T13:23:15;43.85;34.89;53.87;;
60503;Laerm;51448;51.660;5.824;2022-08-04T13:25:52;45.53;34.43;56.58;;
60503;Laerm;51448;51.660;5.824;2022-08-04T13:28:46;44.97;34.44;58.85;;
60503;Laerm;51448;51.660;5.824;2022-08-04T13:31:18;44.90;34.09;59.27;;
60503;Laerm;51448;51.660;5.824;2022-08-04T13:33:53;46.64;35.45;71.32;;
60503;Laerm;51448;51.660;5.824;2022-08-04T13:36:25;46.51;34.34;61.50;;
60503;Laerm;51448;51.660;5.824;2022-08-04T13:39:02;46.45;34.37;66.58;;
60503;Laerm;51448;51.660;5.824;2022-08-04T13:41:38;46.63;34.46;64.77;;
60503;Laerm;51448;51.660;5.824;2022-08-04T13:44:10;46.56;32.37;60.35;;
60503;Laerm;51448;51.660;5.824;2022-08-04T13:46:52;45.53;33.21;58.99;;
60503;Laerm;51448;51.660;5.824;2022-08-04T13:49:21;45.63;34.16;60.27;;
60503;Laerm;51448;51.660;5.824;2022-08-04T13:52:09;45.57;36.86;60.36;;
60503;Laerm;51448;51.660;5.824;2022-08-04T13:54:47;48.94;34.20;58.44;;
60503;Laerm;51448;51.660;5.824;2022-08-04T13:57:29;50.71;41.14;57.75;;
60503;Laerm;51448;51.660;5.824;2022-08-04T14:00:07;48.75;37.41;71.10;;
60503;Laerm;51448;51.660;5.824;2022-08-04T14:02:59;51.23;35.79;72.00;;
60503;Laerm;51448;51.660;5.824;2022-08-04T14:05:30;45.71;34.01;59.26;;
60503;Laerm;51448;51.660;5.824;2022-08-04T14:08:25;44.38;33.42;65.75;;
60503;Laerm;51448;51.660;5.824;2022-08-04T14:10:57;45.94;33.19;58.16;;
60503;Laerm;51448;51.660;5.824;2022-08-04T14:13:32;49.47;31.91;65.64;;
60503;Laerm;51448;51.660;5.824;2022-08-04T14:16:18;43.85;31.86;65.32;;
60503;Laerm;51448;51.660;5.824;2022-08-04T14:18:57;44.20;32.14;56.64;;
60503;Laerm;51448;51.660;5.824;2022-08-04T14:21:25;51.79;32.90;67.20;;
60503;Laerm;51448;51.660;5.824;2022-08-04T14:23:56;46.12;33.18;59.76;;
60503;Laerm;51448;51.660;5.824;2022-08-04T14:26:36;47.92;33.12;62.73;;
60503;Laerm;51448;51.660;5.824;2022-08-04T14:29:17;48.67;32.19;65.77;;
60503;Laerm;51448;51.660;5.824;2022-08-04T14:32:05;46.47;31.92;71.31;;
60503;Laerm;51448;51.660;5.824;2022-08-04T14:34:49;47.20;32.82;65.68;;
60503;Laerm;51448;51.660;5.824;2022-08-04T14:37:17;46.04;32.04;72.24;;
60503;Laerm;51448;51.660;5.824;2022-08-04T14:39:52;41.43;31.02;54.36;;
60503;Laerm;51448;51.660;5.824;2022-08-04T14:42:45;46.37;32.85;60.03;;
60503;Laerm;51448;51.660;5.824;2022-08-04T14:45:40;46.11;32.29;57.07;;
60503;Laerm;51448;51.660;5.824;2022-08-04T14:48:21;45.10;31.67;57.86;;
60503;Laerm;51448;51.660;5.824;2022-08-04T14:50:50;42.49;31.02;55.70;;
60503;Laerm;51448;51.660;5.824;2022-08-04T14:53:23;47.08;32.02;60.98;;
60503;Laerm;51448;51.660;5.824;2022-08-04T14:55:58;45.00;31.42;69.41;;
60503;Laerm;51448;51.660;5.824;2022-08-04T14:58:29;48.50;32.47;65.95;;
60503;Laerm;51448;51.660;5.824;2022-08-04T15:01:10;45.10;33.30;63.80;;
60503;Laerm;51448;51.660;5.824;2022-08-04T15:03:43;52.72;33.64;66.51;;
60503;Laerm;51448;51.660;5.824;2022-08-04T15:06:25;45.96;33.05;56.85;;
60503;Laerm;51448;51.660;5.824;2022-08-04T15:08:57;45.29;32.98;59.51;;
60503;Laerm;51448;51.660;5.824;2022-08-04T15:11:26;48.92;33.87;71.82;;
60503;Laerm;51448;51.660;5.824;2022-08-04T15:13:56;42.89;32.80;60.32;;
60503;Laerm;51448;51.660;5.824;2022-08-04T15:16:28;49.16;33.38;60.65;;
60503;Laerm;51448;51.660;5.824;2022-08-04T15:18:57;47.12;33.34;57.37;;
60503;Laerm;51448;51.660;5.824;2022-08-04T15:21:28;44.89;32.58;54.78;;
60503;Laerm;51448;51.660;5.824;2022-08-04T15:23:57;45.24;33.46;61.38;;
60503;Laerm;51448;51.660;5.824;2022-08-04T15:26:43;46.74;32.90;59.72;;
60503;Laerm;51448;51.660;5.824;2022-08-04T15:32:21;44.45;33.24;57.41;;
60503;Laerm;51448;51.660;5.824;2022-08-04T15:34:51;49.48;34.76;61.37;;
60503;Laerm;51448;51.660;5.824;2022-08-04T15:37:41;49.90;33.83;70.89;;
60503;Laerm;51448;51.660;5.824;2022-08-04T15:40:16;46.56;35.17;61.23;;
60503;Laerm;51448;51.660;5.824;2022-08-04T15:43:44;45.92;33.42;66.73;;
60503;Laerm;51448;51.660;5.824;2022-08-04T15:46:12;47.05;32.80;57.53;;
60503;Laerm;51448;51.660;5.824;2022-08-04T15:49:19;47.03;34.32;65.62;;
60503;Laerm;51448;51.660;5.824;2022-08-04T15:52:00;50.12;35.48;67.31;;
60503;Laerm;51448;51.660;5.824;2022-08-04T15:54:28;56.50;35.34;75.61;;
60503;Laerm;51448;51.660;5.824;2022-08-04T15:56:59;45.47;35.58;72.04;;
60503;Laerm;51448;51.660;5.824;2022-08-04T16:00:05;48.00;36.13;60.50;;
60503;Laerm;51448;51.660;5.824;2022-08-04T16:02:41;44.86;34.17;57.98;;
60503;Laerm;51448;51.660;5.824;2022-08-04T16:08:09;47.68;34.73;59.30;;
60503;Laerm;51448;51.660;5.824;2022-08-04T16:10:44;48.40;35.42;63.89;;
60503;Laerm;51448;51.660;5.824;2022-08-04T16:13:16;47.76;36.87;60.61;;
60503;Laerm;51448;51.660;5.824;2022-08-04T16:15:56;45.10;36.78;56.83;;
60503;Laerm;51448;51.660;5.824;2022-08-04T16:21:04;47.59;35.72;65.35;;
60503;Laerm;51448;51.660;5.824;2022-08-04T16:24:37;45.37;34.22;62.60;;
60503;Laerm;51448;51.660;5.824;2022-08-04T16:26:54;47.81;35.41;58.70;;
60503;Laerm;51448;51.660;5.824;2022-08-04T16:32:20;46.75;35.44;63.87;;
60503;Laerm;51448;51.660;5.824;2022-08-04T16:35:00;42.28;35.90;64.43;;
60503;Laerm;51448;51.660;5.824;2022-08-04T16:37:36;44.63;33.86;67.85;;
60503;Laerm;51448;51.660;5.824;2022-08-04T16:40:42;49.92;34.19;71.70;;
60503;Laerm;51448;51.660;5.824;2022-08-04T16:43:15;40.85;33.22;54.71;;
60503;Laerm;51448;51.660;5.824;2022-08-04T16:45:46;47.17;34.64;61.10;;
60503;Laerm;51448;51.660;5.824;2022-08-04T16:48:30;42.78;33.63;54.30;;
60503;Laerm;51448;51.660;5.824;2022-08-04T16:51:10;54.30;33.09;66.69;;
60503;Laerm;51448;51.660;5.824;2022-08-04T16:53:45;43.53;34.70;60.61;;
60503;Laerm;51448;51.660;5.824;2022-08-04T16:56:32;45.98;34.77;72.37;;
60503;Laerm;51448;51.660;5.824;2022-08-04T16:59:11;45.63;35.72;61.86;;
60503;Laerm;51448;51.660;5.824;2022-08-04T17:01:51;41.20;34.07;63.28;;
60503;Laerm;51448;51.660;5.824;2022-08-04T17:04:33;46.52;34.80;59.16;;
60503;Laerm;51448;51.660;5.824;2022-08-04T17:07:05;41.99;35.39;60.34;;
60503;Laerm;51448;51.660;5.824;2022-08-04T17:09:32;45.38;34.15;61.55;;
60503;Laerm;51448;51.660;5.824;2022-08-04T17:12:01;41.71;34.01;56.58;;
60503;Laerm;51448;51.660;5.824;2022-08-04T17:14:30;44.56;35.48;56.75;;
60503;Laerm;51448;51.660;5.824;2022-08-04T17:17:00;48.43;35.33;60.74;;
60503;Laerm;51448;51.660;5.824;2022-08-04T17:19:28;45.75;35.11;58.65;;
60503;Laerm;51448;51.660;5.824;2022-08-04T17:22:05;48.07;36.21;63.23;;
60503;Laerm;51448;51.660;5.824;2022-08-04T17:24:38;51.62;36.78;65.91;;
60503;Laerm;51448;51.660;5.824;2022-08-04T17:27:09;44.17;35.37;61.83;;
60503;Laerm;51448;51.660;5.824;2022-08-04T17:29:57;45.77;34.56;64.36;;
60503;Laerm;51448;51.660;5.824;2022-08-04T17:32:25;46.19;34.96;61.43;;
60503;Laerm;51448;51.660;5.824;2022-08-04T17:34:58;43.67;35.74;57.16;;
60503;Laerm;51448;51.660;5.824;2022-08-04T17:37:28;48.66;37.97;59.69;;